Edwards Crossroads, North Carolina
Current Conditions -  °F | °C
As of 5:55 AM on Friday 24 Oct 2014 (Local Time) from KGEV Reporting Station
Clear Clear  
Wind Chill:   Ceiling: Unl
Heat Index:   Visibility: 10mi
Dew Point:   Wind: 0mph
Humidity: 81%   Direction: NA
Pressure: 30.07"   Gusts: NA
Location:  36.5212°N, 81.1574°W
Report Text: KGEV 240955Z AUTO 00000KT 10SM CLR 03/01 A3007 RMK AO2 T00340005
Loading
Personal Weather Stations






























Interactive Weather Map
Tropical Storm Tracking
New forecast layout! Learn more

10-Day Weather Forecast

Advertisements
Track Severe Weather on mobile